createdAt,value
2022-09-11T00:00:51.068Z,25.85
2022-09-11T00:03:24.631Z,24.08
2022-09-11T00:06:13.073Z,23.02
2022-09-11T00:08:56.069Z,23.77
2022-09-11T00:11:54.097Z,23.52
2022-09-11T00:14:41.096Z,21.83
2022-09-11T00:17:18.380Z,21.77
2022-09-11T00:20:07.090Z,23.63
2022-09-11T00:22:40.148Z,22.20
2022-09-11T00:25:27.085Z,22.40
2022-09-11T00:28:00.214Z,23.13
2022-09-11T00:30:47.108Z,22.40
2022-09-11T00:33:22.778Z,21.30
2022-09-11T00:36:13.077Z,22.20
2022-09-11T00:38:46.389Z,21.52
2022-09-11T00:41:40.081Z,22.88
2022-09-11T00:44:42.129Z,21.38
2022-09-11T00:47:36.084Z,20.98
2022-09-11T00:50:27.106Z,20.25
2022-09-11T00:53:08.175Z,18.52
2022-09-11T00:56:00.128Z,20.42
2022-09-11T00:58:45.106Z,22.45
2022-09-11T01:01:40.109Z,19.77
2022-09-11T01:04:28.117Z,18.92
2022-09-11T01:07:04.334Z,21.13
2022-09-11T01:09:51.117Z,21.85
2022-09-11T01:12:36.110Z,20.08
2022-09-11T01:15:49.123Z,19.25
2022-09-11T01:18:48.121Z,18.95
2022-09-11T01:22:09.142Z,19.35
2022-09-11T01:25:03.099Z,20.50
2022-09-11T01:27:51.194Z,19.45
2022-09-11T01:30:44.108Z,21.27
2022-09-11T01:33:30.953Z,23.02
2022-09-11T01:36:32.120Z,22.73
2022-09-11T01:39:17.107Z,20.52
2022-09-11T01:42:21.139Z,19.45
2022-09-11T01:45:10.128Z,20.08
2022-09-11T01:47:45.622Z,21.27
2022-09-11T01:50:35.129Z,21.10
2022-09-11T01:53:19.126Z,21.58
2022-09-11T01:56:20.163Z,19.98
2022-09-11T01:59:18.125Z,22.35
2022-09-11T02:02:13.200Z,21.77
2022-09-11T02:05:13.131Z,20.75
2022-09-11T02:08:13.142Z,21.85
2022-09-11T02:11:16.128Z,21.25
2022-09-11T02:13:56.894Z,19.95
2022-09-11T02:16:57.146Z,19.70
2022-09-11T02:19:41.145Z,21.88
2022-09-11T02:22:28.152Z,21.52
2022-09-11T02:25:10.134Z,19.52
2022-09-11T02:27:57.153Z,19.23
2022-09-11T02:30:30.222Z,19.45
2022-09-11T02:33:38.227Z,20.20
2022-09-11T02:36:24.160Z,21.42
2022-09-11T02:39:30.169Z,22.52
2022-09-11T02:42:25.630Z,21.95
2022-09-11T02:45:39.195Z,21.52
2022-09-11T02:48:21.262Z,20.33
2022-09-11T02:51:23.144Z,21.38
2022-09-11T02:54:05.573Z,21.00
2022-09-11T02:56:59.149Z,20.83
2022-09-11T03:00:14.174Z,20.67
2022-09-11T03:03:08.150Z,18.40
2022-09-11T03:05:55.155Z,19.33
2022-09-11T03:08:28.231Z,20.38
2022-09-11T03:11:16.145Z,21.80
2022-09-11T03:13:56.163Z,21.90
2022-09-11T03:16:50.171Z,21.88
2022-09-11T03:19:44.186Z,19.33
2022-09-11T03:22:38.173Z,21.52
2022-09-11T03:25:25.167Z,20.42
2022-09-11T03:27:58.423Z,19.52
2022-09-11T03:30:48.163Z,20.38
2022-09-11T03:33:29.195Z,21.00
2022-09-11T03:36:16.159Z,21.50
2022-09-11T03:38:56.192Z,19.92
2022-09-11T03:41:50.175Z,20.83
2022-09-11T03:44:37.182Z,21.67
2022-09-11T03:47:10.257Z,20.42
2022-09-11T03:49:57.186Z,21.85
2022-09-11T03:52:37.188Z,22.38
2022-09-11T03:55:31.205Z,22.33
2022-09-11T03:58:18.219Z,20.48
2022-09-11T04:00:59.223Z,21.27
2022-09-11T04:03:54.192Z,21.67
2022-09-11T04:06:56.203Z,20.85
2022-09-11T04:09:43.200Z,21.85
2022-09-11T04:12:16.418Z,21.67
2022-09-11T04:15:03.185Z,21.35
2022-09-11T04:17:37.295Z,19.95
2022-09-11T04:20:24.194Z,22.38
2022-09-11T04:23:04.203Z,20.95
2022-09-11T04:25:59.195Z,19.67
2022-09-11T04:28:53.202Z,19.98
2022-09-11T04:31:49.250Z,19.33
2022-09-11T04:34:43.191Z,20.85
2022-09-11T04:37:30.234Z,21.13
2022-09-11T04:40:10.282Z,20.42
2022-09-11T04:42:57.207Z,19.50
2022-09-11T04:45:40.332Z,20.02
2022-09-11T04:48:27.218Z,21.42
2022-09-11T04:51:12.322Z,20.95
2022-09-11T04:54:04.218Z,19.98
2022-09-11T04:56:46.232Z,19.77
2022-09-11T04:59:40.203Z,19.85
2022-09-11T05:02:28.238Z,21.45
2022-09-11T05:05:01.746Z,19.48
2022-09-11T05:07:48.231Z,20.40
2022-09-11T05:10:21.300Z,19.42
2022-09-11T05:13:08.229Z,20.48
2022-09-11T05:15:48.206Z,20.70
2022-09-11T05:18:35.230Z,20.83
2022-09-11T05:21:10.313Z,19.25
2022-09-11T05:23:59.228Z,21.02
2022-09-11T05:26:35.332Z,22.00
2022-09-11T05:29:23.251Z,20.77
2022-09-11T05:31:58.922Z,19.52
2022-09-11T05:34:45.225Z,19.02
2022-09-11T05:37:25.260Z,18.50
2022-09-11T05:40:19.241Z,20.95
2022-09-11T05:43:06.250Z,20.95
2022-09-11T05:45:46.265Z,18.90
2022-09-11T05:48:38.226Z,20.50
2022-09-11T05:51:23.907Z,21.00
2022-09-11T05:54:11.229Z,19.50
2022-09-11T05:56:51.245Z,19.80
2022-09-11T05:59:39.250Z,19.73
2022-09-11T06:02:19.314Z,21.33
2022-09-11T06:05:13.274Z,21.75
2022-09-11T06:08:08.233Z,20.63
2022-09-11T06:10:55.251Z,21.90
2022-09-11T06:13:28.769Z,21.02
2022-09-11T06:16:23.364Z,22.00
2022-09-11T06:18:58.372Z,17.70
2022-09-11T06:21:45.276Z,19.48
2022-09-11T06:24:18.776Z,20.95
2022-09-11T06:27:05.256Z,22.80
2022-09-11T06:29:45.302Z,20.38
2022-09-11T06:32:32.251Z,18.63
2022-09-11T06:35:12.278Z,20.58
2022-09-11T06:38:06.264Z,19.17
2022-09-11T06:40:53.279Z,19.05
2022-09-11T06:43:33.324Z,19.45
2022-09-11T06:46:32.264Z,19.10
2022-09-11T06:49:26.299Z,19.75
2022-09-11T06:52:13.260Z,19.85
2022-09-11T06:54:53.289Z,18.95
2022-09-11T06:57:48.265Z,19.88
2022-09-11T07:00:43.276Z,21.27
2022-09-11T07:03:30.280Z,18.25
2022-09-11T07:06:03.338Z,19.02
2022-09-11T07:08:50.281Z,18.63
2022-09-11T07:11:23.525Z,18.13
2022-09-11T07:14:12.298Z,18.52
2022-09-11T07:16:52.332Z,18.30
2022-09-11T07:19:46.288Z,17.92
2022-09-11T07:22:41.290Z,17.30
2022-09-11T07:25:28.282Z,17.33
2022-09-11T07:28:01.374Z,17.85
2022-09-11T07:30:48.293Z,18.23
2022-09-11T07:33:23.135Z,19.02
2022-09-11T07:36:15.289Z,18.15
2022-09-11T07:38:49.656Z,17.90
2022-09-11T07:41:37.288Z,18.48
2022-09-11T07:44:10.360Z,17.27
2022-09-11T07:46:57.296Z,16.70
2022-09-11T07:49:37.294Z,16.13
2022-09-11T07:52:31.318Z,16.20
2022-09-11T07:55:18.297Z,16.33
2022-09-11T07:57:52.112Z,18.00
2022-09-11T08:00:39.304Z,18.42
2022-09-11T08:03:12.379Z,18.60
2022-09-11T08:06:04.309Z,16.48
2022-09-11T08:08:38.181Z,14.70
2022-09-11T08:11:25.306Z,15.27
2022-09-11T08:14:01.046Z,16.40
2022-09-11T08:16:48.449Z,17.65
2022-09-11T08:19:25.469Z,17.65
2022-09-11T08:22:12.328Z,16.08
2022-09-11T08:24:52.307Z,17.10
2022-09-11T08:27:46.321Z,15.85
2022-09-11T08:30:33.331Z,16.23
2022-09-11T08:33:15.337Z,16.70
2022-09-11T08:36:11.318Z,18.13
2022-09-11T08:38:59.332Z,15.88
2022-09-11T08:42:01.322Z,15.95
2022-09-11T08:45:08.346Z,16.25
2022-09-11T08:48:07.336Z,14.73
2022-09-11T08:50:56.336Z,15.63
2022-09-11T08:53:29.410Z,15.45
2022-09-11T08:56:21.329Z,14.32
2022-09-11T08:59:23.337Z,16.77
2022-09-11T09:02:49.335Z,15.05
2022-09-11T09:06:12.331Z,16.60
2022-09-11T09:09:14.337Z,16.12
2022-09-11T09:12:22.341Z,16.23
2022-09-11T09:15:20.345Z,15.35
2022-09-11T09:18:13.354Z,15.35
2022-09-11T09:21:03.345Z,15.15
2022-09-11T09:24:05.371Z,17.30
2022-09-11T09:26:57.335Z,17.10
2022-09-11T09:29:37.827Z,16.70
2022-09-11T09:32:33.352Z,15.50
2022-09-11T09:35:18.349Z,15.13
2022-09-11T09:38:06.366Z,16.92
2022-09-11T09:40:42.498Z,16.25
2022-09-11T09:43:35.371Z,14.80
2022-09-11T09:46:23.362Z,17.27
2022-09-11T09:49:17.363Z,13.40
2022-09-11T09:52:07.372Z,18.23
2022-09-11T09:54:41.495Z,16.92
2022-09-11T09:57:31.385Z,15.82
2022-09-11T10:00:24.357Z,15.50
2022-09-11T10:03:47.383Z,17.30
2022-09-11T10:06:34.370Z,17.10
2022-09-11T10:09:07.465Z,16.60
2022-09-11T10:11:59.377Z,15.43
2022-09-11T10:14:51.071Z,16.13
2022-09-11T10:17:41.381Z,16.35
2022-09-11T10:20:33.037Z,16.20
2022-09-11T10:23:33.405Z,16.60
2022-09-11T10:26:06.458Z,14.57
2022-09-11T10:28:54.401Z,16.73
2022-09-11T10:31:34.405Z,15.55
2022-09-11T10:34:31.369Z,16.08
2022-09-11T10:37:22.395Z,15.70
2022-09-11T10:39:56.551Z,15.73
2022-09-11T10:42:44.399Z,16.30
2022-09-11T10:45:23.539Z,15.45
2022-09-11T10:48:29.404Z,15.88
2022-09-11T10:51:15.074Z,15.73
2022-09-11T10:54:13.393Z,14.85
2022-09-11T10:57:07.489Z,15.00
2022-09-11T11:00:15.417Z,14.20
2022-09-11T11:02:54.534Z,14.68
2022-09-11T11:06:00.399Z,14.35
2022-09-11T11:08:38.513Z,14.27
2022-09-11T11:11:40.393Z,16.75
2022-09-11T11:14:44.414Z,15.73
2022-09-11T11:17:47.410Z,15.02
2022-09-11T11:20:33.402Z,14.20
2022-09-11T11:23:27.418Z,15.20
2022-09-11T11:26:28.403Z,13.27
2022-09-11T11:29:28.783Z,14.20
2022-09-11T11:32:53.411Z,13.68
2022-09-11T11:35:32.045Z,12.95
2022-09-11T11:38:27.415Z,13.90
2022-09-11T11:41:20.440Z,14.23
2022-09-11T11:44:17.425Z,14.32
2022-09-11T11:47:16.434Z,14.50
2022-09-11T11:50:15.450Z,14.23
2022-09-11T11:53:11.196Z,15.35
2022-09-11T11:56:26.444Z,14.27
2022-09-11T11:59:27.422Z,14.30
2022-09-11T12:02:14.498Z,14.15
2022-09-11T12:05:12.495Z,14.38
2022-09-11T12:08:00.453Z,14.27
2022-09-11T12:10:45.496Z,16.20
2022-09-11T12:13:50.445Z,14.68
2022-09-11T12:16:48.423Z,14.63
2022-09-11T12:19:35.440Z,14.60
2022-09-11T12:22:18.170Z,13.75
2022-09-11T12:25:07.449Z,14.32
2022-09-11T12:27:50.444Z,15.20
2022-09-11T12:30:57.476Z,15.27
2022-09-11T12:33:48.576Z,15.43
2022-09-11T12:36:40.433Z,13.85
2022-09-11T12:39:32.575Z,14.85
2022-09-11T12:42:31.440Z,15.07
2022-09-11T12:45:12.443Z,15.15
2022-09-11T12:48:06.448Z,14.90
2022-09-11T12:51:03.458Z,13.65
2022-09-11T12:53:49.476Z,15.40
2022-09-11T12:56:46.444Z,15.52
2022-09-11T12:59:46.476Z,14.35
2022-09-11T13:02:56.457Z,14.15
2022-09-11T13:05:46.479Z,15.00
2022-09-11T13:08:28.537Z,13.40
2022-09-11T13:11:40.478Z,15.05
2022-09-11T13:14:42.468Z,15.80
2022-09-11T13:17:35.459Z,15.13
2022-09-11T13:20:18.488Z,15.93
2022-09-11T13:23:29.481Z,14.77
2022-09-11T13:26:25.500Z,14.90
2022-09-11T13:29:01.688Z,16.05
2022-09-11T13:31:49.476Z,14.80
2022-09-11T13:34:25.585Z,15.18
2022-09-11T13:37:18.482Z,15.52
2022-09-11T13:39:59.511Z,14.82
2022-09-11T13:42:46.487Z,15.23
2022-09-11T13:45:26.327Z,14.98
2022-09-11T13:48:30.503Z,16.48
2022-09-11T13:51:12.488Z,15.00
2022-09-11T13:54:14.481Z,15.00
2022-09-11T13:57:09.506Z,14.80
2022-09-11T14:00:07.495Z,18.55
2022-09-11T14:02:59.476Z,18.77
2022-09-11T14:05:41.502Z,18.05
2022-09-11T14:08:53.484Z,15.00
2022-09-11T14:11:40.490Z,15.35
2022-09-11T14:14:26.492Z,14.98
2022-09-11T14:17:24.515Z,15.73
2022-09-11T14:20:11.498Z,15.38
2022-09-11T14:22:44.558Z,14.88
2022-09-11T14:25:31.500Z,14.18
2022-09-11T14:28:05.751Z,16.05
2022-09-11T14:31:12.538Z,15.70
2022-09-11T14:33:52.501Z,15.13
2022-09-11T14:36:40.532Z,15.38
2022-09-11T14:39:23.614Z,14.55
2022-09-11T14:42:14.506Z,15.35
2022-09-11T14:44:48.637Z,16.08
2022-09-11T14:47:35.500Z,15.32
2022-09-11T14:50:12.088Z,15.45
2022-09-11T14:52:58.534Z,14.00
2022-09-11T14:55:31.602Z,15.20
2022-09-11T14:58:18.521Z,14.88
2022-09-11T15:00:51.582Z,15.13
2022-09-11T15:03:38.575Z,14.23
2022-09-11T15:06:11.634Z,15.60
2022-09-11T15:08:58.534Z,14.57
2022-09-11T15:11:37.427Z,14.45
2022-09-11T15:14:54.991Z,17.35
2022-09-11T15:17:42.542Z,15.07
2022-09-11T15:20:15.594Z,13.93
2022-09-11T15:23:02.549Z,15.07
2022-09-11T15:25:35.621Z,15.85
2022-09-11T15:28:22.561Z,16.00
2022-09-11T15:31:00.647Z,14.55
2022-09-11T15:33:47.530Z,14.90
2022-09-11T15:36:23.008Z,15.70
2022-09-11T15:39:09.543Z,17.40
2022-09-11T15:41:46.936Z,15.25
2022-09-11T15:44:35.550Z,15.93
2022-09-11T15:47:08.920Z,16.15
2022-09-11T15:49:55.546Z,17.45
2022-09-11T15:52:29.504Z,14.57
2022-09-11T15:55:16.562Z,14.93
2022-09-11T15:57:49.936Z,15.20
2022-09-11T16:00:36.617Z,17.95
2022-09-11T16:03:09.639Z,17.90
2022-09-11T16:05:56.544Z,15.43
2022-09-11T16:08:32.703Z,18.65
2022-09-11T16:11:20.557Z,16.67
2022-09-11T16:13:58.638Z,17.20
2022-09-11T16:16:45.547Z,17.30
2022-09-11T16:19:18.623Z,20.35
2022-09-11T16:22:07.595Z,17.55
2022-09-11T16:24:43.498Z,19.17
2022-09-11T16:27:30.561Z,21.25
2022-09-11T16:33:10.558Z,19.02
2022-09-11T16:35:45.293Z,19.30
2022-09-11T16:38:31.580Z,20.50
2022-09-11T16:41:16.815Z,19.27
2022-09-11T16:44:03.566Z,20.65
2022-09-11T16:46:43.609Z,19.48
2022-09-11T16:50:03.246Z,21.02
2022-09-11T16:52:45.585Z,21.13
2022-09-11T16:55:20.205Z,20.20
2022-09-11T16:58:06.572Z,19.23
2022-09-11T17:00:39.735Z,17.33
2022-09-11T17:03:26.589Z,20.70
2022-09-11T17:06:08.583Z,20.35
2022-09-11T17:09:06.578Z,22.00
2022-09-11T17:11:54.572Z,21.25
2022-09-11T17:14:28.455Z,20.40
2022-09-11T17:17:15.576Z,18.48
2022-09-11T17:19:56.586Z,21.80
2022-09-11T17:22:53.730Z,21.20
2022-09-11T17:25:46.612Z,17.33
2022-09-11T17:28:22.470Z,19.25
2022-09-11T17:31:10.649Z,19.42
2022-09-11T17:33:45.497Z,18.63
2022-09-11T17:36:32.628Z,18.33
2022-09-11T17:39:05.748Z,17.75
2022-09-11T17:41:52.605Z,19.15
2022-09-11T17:44:32.588Z,19.40
2022-09-11T17:47:26.631Z,19.77
2022-09-11T17:50:14.588Z,20.38
2022-09-11T17:52:54.614Z,19.48
2022-09-11T17:55:48.609Z,17.98
2022-09-11T17:58:36.628Z,18.25
2022-09-11T18:01:17.651Z,20.50
2022-09-11T18:04:12.601Z,22.55
2022-09-11T18:06:59.609Z,19.58
2022-09-11T18:09:32.685Z,19.88
2022-09-11T18:12:19.642Z,19.83
2022-09-11T18:15:02.614Z,20.08
2022-09-11T18:17:56.641Z,19.67
2022-09-11T18:20:50.648Z,19.67
2022-09-11T18:23:39.637Z,20.40
2022-09-11T18:26:13.701Z,20.02
2022-09-11T18:29:05.630Z,20.00
2022-09-11T18:31:43.854Z,17.88
2022-09-11T18:34:32.620Z,20.00
2022-09-11T18:37:07.253Z,19.27
2022-09-11T18:39:54.694Z,19.08
2022-09-11T18:42:27.683Z,20.15
2022-09-11T18:45:15.628Z,19.23
2022-09-11T18:47:52.634Z,20.13
2022-09-11T18:50:42.644Z,21.10
2022-09-11T18:53:17.305Z,21.00
2022-09-11T18:56:08.615Z,21.35
2022-09-11T18:58:45.605Z,20.90
2022-09-11T19:01:35.706Z,19.92
2022-09-11T19:04:16.927Z,20.13
2022-09-11T19:07:03.657Z,19.33
2022-09-11T19:09:45.960Z,20.20
2022-09-11T19:12:39.651Z,22.35
2022-09-11T19:15:33.652Z,19.65
2022-09-11T19:18:27.672Z,19.77
2022-09-11T19:21:18.668Z,19.67
2022-09-11T19:23:55.942Z,19.60
2022-09-11T19:26:48.669Z,19.10
2022-09-11T19:29:22.642Z,20.00
2022-09-11T19:32:09.653Z,19.17
2022-09-11T19:34:49.642Z,20.13
2022-09-11T19:37:43.663Z,20.35
2022-09-11T19:40:30.672Z,20.60
2022-09-11T19:43:04.030Z,20.83
2022-09-11T19:45:50.677Z,20.60
2022-09-11T19:48:24.731Z,20.98
2022-09-11T19:51:15.666Z,20.58
2022-09-11T19:53:49.766Z,19.48
2022-09-11T19:56:38.688Z,21.83
2022-09-11T19:59:14.295Z,19.75
2022-09-11T20:02:00.735Z,18.83
2022-09-11T20:04:40.677Z,20.02
2022-09-11T20:07:34.666Z,20.88
2022-09-11T20:10:22.679Z,20.38
2022-09-11T20:12:56.756Z,21.27
2022-09-11T20:15:44.676Z,20.75
2022-09-11T20:18:24.681Z,20.77
2022-09-11T20:21:22.686Z,21.92
2022-09-11T20:24:11.699Z,22.30
2022-09-11T20:26:51.664Z,21.52
2022-09-11T20:29:46.693Z,22.92
2022-09-11T20:32:33.688Z,21.17
2022-09-11T20:35:06.766Z,22.58
2022-09-11T20:37:53.713Z,21.30
2022-09-11T20:40:33.696Z,22.05
2022-09-11T20:43:27.708Z,20.90
2022-09-11T20:46:15.757Z,21.08
2022-09-11T20:48:48.902Z,21.92
2022-09-11T20:51:35.700Z,22.10
2022-09-11T20:54:08.767Z,21.27
2022-09-11T20:56:55.707Z,21.35
2022-09-11T20:59:28.773Z,22.55
2022-09-11T21:02:18.762Z,20.50
2022-09-11T21:04:52.813Z,19.05
2022-09-11T21:07:39.709Z,18.38
2022-09-11T21:10:14.147Z,19.88
2022-09-11T21:12:53.714Z,20.48
2022-09-11T21:15:40.706Z,20.92
2022-09-11T21:18:34.701Z,19.98
2022-09-11T21:21:21.709Z,19.58
2022-09-11T21:23:55.016Z,18.73
2022-09-11T21:26:41.721Z,20.45
2022-09-11T21:29:25.715Z,21.40
2022-09-11T21:32:12.704Z,20.65
2022-09-11T21:34:52.724Z,22.48
2022-09-11T21:37:46.699Z,20.75
2022-09-11T21:40:33.730Z,19.67
2022-09-11T21:43:13.713Z,19.42
2022-09-11T21:46:00.729Z,19.00
2022-09-11T21:48:35.891Z,20.75
2022-09-11T21:51:24.725Z,20.83
2022-09-11T21:54:09.727Z,19.33
2022-09-11T21:57:03.725Z,20.58
2022-09-11T21:59:50.753Z,20.83
2022-09-11T22:02:24.763Z,22.00
2022-09-11T22:05:12.704Z,21.10
2022-09-11T22:07:45.812Z,20.10
2022-09-11T22:10:32.723Z,22.42
2022-09-11T22:13:05.864Z,20.25
2022-09-11T22:16:01.751Z,19.75
2022-09-11T22:18:48.736Z,20.33
2022-09-11T22:21:22.810Z,20.23
2022-09-11T22:24:09.724Z,21.85
2022-09-11T22:26:49.760Z,21.00
2022-09-11T22:29:46.919Z,21.17
2022-09-11T22:32:33.764Z,20.52
2022-09-11T22:35:06.842Z,23.23
2022-09-11T22:37:53.768Z,24.45
2022-09-11T22:40:26.890Z,19.75
2022-09-11T22:43:13.730Z,21.92
2022-09-11T22:45:46.872Z,23.05
2022-09-11T22:48:33.756Z,24.23
2022-09-11T22:51:06.863Z,23.08
2022-09-11T22:53:53.762Z,21.27
2022-09-11T22:56:26.822Z,22.00
2022-09-11T22:59:13.776Z,23.95
2022-09-11T23:01:46.857Z,24.15
2022-09-11T23:04:33.793Z,22.27
2022-09-11T23:07:15.986Z,22.90
2022-09-11T23:10:02.769Z,25.00
2022-09-11T23:12:37.270Z,21.38
2022-09-11T23:15:30.753Z,22.15
2022-09-11T23:18:24.759Z,23.83
2022-09-11T23:21:11.768Z,23.83
2022-09-11T23:23:45.867Z,22.98
2022-09-11T23:26:34.771Z,21.55
2022-09-11T23:29:07.862Z,24.55
2022-09-11T23:31:54.810Z,23.25
2022-09-11T23:34:27.885Z,22.10
2022-09-11T23:37:14.798Z,21.98
2022-09-11T23:39:49.964Z,22.83
2022-09-11T23:42:36.784Z,22.92
2022-09-11T23:45:12.675Z,21.85
2022-09-11T23:47:59.758Z,23.67
2022-09-11T23:50:33.085Z,20.70
2022-09-11T23:53:19.779Z,21.25
2022-09-11T23:56:00.812Z,23.23
2022-09-11T23:58:54.793Z,22.60
